createdAt,value
2023-02-07T00:00:54.672Z,3.83
2023-02-07T00:03:21.483Z,3.90
2023-02-07T00:05:48.282Z,4.38
2023-02-07T00:08:15.264Z,3.75
2023-02-07T00:10:42.020Z,3.53
2023-02-07T00:13:08.762Z,3.15
2023-02-07T00:15:35.799Z,3.65
2023-02-07T00:18:02.721Z,3.35
2023-02-07T00:20:29.483Z,3.25
2023-02-07T00:22:56.284Z,2.95
2023-02-07T00:25:23.115Z,2.70
2023-02-07T00:27:49.964Z,3.88
2023-02-07T00:30:17.969Z,4.22
2023-02-07T00:32:44.693Z,3.45
2023-02-07T00:35:11.406Z,3.90
2023-02-07T00:37:38.123Z,3.50
2023-02-07T00:40:05.362Z,3.97
2023-02-07T00:42:32.153Z,3.88
2023-02-07T00:44:58.869Z,3.75
2023-02-07T00:47:25.628Z,2.80
2023-02-07T00:49:52.390Z,3.30
2023-02-07T00:52:19.151Z,3.33
2023-02-07T00:54:45.940Z,3.97
2023-02-07T00:57:12.710Z,3.92
2023-02-07T00:59:39.482Z,3.50
2023-02-07T01:02:06.327Z,4.40
2023-02-07T01:04:33.051Z,4.88
2023-02-07T01:06:59.819Z,3.78
2023-02-07T01:09:26.599Z,4.18
2023-02-07T01:11:53.313Z,4.70
2023-02-07T01:14:20.102Z,4.10
2023-02-07T01:16:46.918Z,4.13
2023-02-07T01:19:14.946Z,3.97
2023-02-07T01:21:41.788Z,4.57
2023-02-07T01:24:08.751Z,3.83
2023-02-07T01:26:36.171Z,3.55
2023-02-07T01:29:02.940Z,3.65
2023-02-07T01:31:29.864Z,3.25
2023-02-07T01:33:57.913Z,4.00
2023-02-07T01:36:24.940Z,3.30
2023-02-07T01:38:52.761Z,3.70
2023-02-07T01:41:20.003Z,3.20
2023-02-07T01:44:08.386Z,3.30
2023-02-07T01:46:35.670Z,3.92
2023-02-07T01:49:10.003Z,2.83
2023-02-07T01:51:36.868Z,3.22
2023-02-07T01:54:04.989Z,3.55
2023-02-07T01:56:32.501Z,3.95
2023-02-07T01:59:00.753Z,4.30
2023-02-07T02:01:27.679Z,3.70
2023-02-07T02:03:57.311Z,3.42
2023-02-07T02:06:25.630Z,3.80
2023-02-07T02:08:56.746Z,3.60
2023-02-07T02:11:54.196Z,3.55
2023-02-07T02:14:26.219Z,3.95
2023-02-07T02:17:06.315Z,3.13
2023-02-07T02:20:10.549Z,3.67
2023-02-07T02:22:59.206Z,3.92
2023-02-07T02:26:02.909Z,4.13
2023-02-07T02:28:55.784Z,4.20
2023-02-07T02:31:44.229Z,3.75
2023-02-07T02:34:28.257Z,4.43
2023-02-07T02:37:00.961Z,3.30
2023-02-07T02:39:47.826Z,4.35
2023-02-07T02:42:21.620Z,4.30
2023-02-07T02:45:07.648Z,4.30
2023-02-07T02:47:34.526Z,4.00
2023-02-07T02:50:01.249Z,3.92
2023-02-07T02:52:44.614Z,3.17
2023-02-07T02:55:15.872Z,3.70
2023-02-07T02:58:02.084Z,3.35
2023-02-07T03:00:50.096Z,3.97
2023-02-07T03:03:22.634Z,3.55
2023-02-07T03:06:07.043Z,4.28
2023-02-07T03:08:52.587Z,4.05
2023-02-07T03:11:21.481Z,3.70
2023-02-07T03:14:09.465Z,4.22
2023-02-07T03:16:48.209Z,3.78
2023-02-07T03:19:32.035Z,4.00
2023-02-07T03:22:10.850Z,3.53
2023-02-07T03:24:41.139Z,4.40
2023-02-07T03:27:09.179Z,3.42
2023-02-07T03:29:36.891Z,3.60
2023-02-07T03:32:05.649Z,4.03
2023-02-07T03:34:49.430Z,3.30
2023-02-07T03:37:28.069Z,3.70
2023-02-07T03:39:54.864Z,3.83
2023-02-07T03:42:49.927Z,4.20
2023-02-07T03:45:18.316Z,3.58
2023-02-07T03:47:45.240Z,4.80
2023-02-07T03:50:12.071Z,4.55
2023-02-07T03:52:38.903Z,4.22
2023-02-07T03:55:06.992Z,3.33
2023-02-07T03:57:33.848Z,3.13
2023-02-07T04:00:00.574Z,3.85
2023-02-07T04:02:27.423Z,4.22
2023-02-07T04:04:54.182Z,3.60
2023-02-07T04:07:20.918Z,4.28
2023-02-07T04:09:47.694Z,4.60
2023-02-07T04:12:14.476Z,3.88
2023-02-07T04:14:41.249Z,3.72
2023-02-07T04:17:08.043Z,5.45
2023-02-07T04:19:34.827Z,4.30
2023-02-07T04:22:01.585Z,4.07
2023-02-07T04:24:31.809Z,3.70
2023-02-07T04:26:59.288Z,4.88
2023-02-07T04:29:26.262Z,3.45
2023-02-07T04:31:53.109Z,3.40
2023-02-07T04:34:19.959Z,3.70
2023-02-07T04:36:46.740Z,3.88
2023-02-07T04:39:13.746Z,4.07
2023-02-07T04:41:40.690Z,3.95
2023-02-07T04:44:07.482Z,4.25
2023-02-07T04:46:34.280Z,4.28
2023-02-07T04:49:01.076Z,3.97
2023-02-07T04:51:27.810Z,3.47
2023-02-07T04:53:54.627Z,3.85
2023-02-07T04:56:21.375Z,4.10
2023-02-07T04:58:48.091Z,5.45
2023-02-07T05:01:15.000Z,4.10
2023-02-07T05:03:41.851Z,3.70
2023-02-07T05:06:08.612Z,3.85
2023-02-07T05:08:36.329Z,5.18
2023-02-07T05:11:03.218Z,4.55
2023-02-07T05:13:29.945Z,3.13
2023-02-07T05:15:56.668Z,4.30
2023-02-07T05:18:23.407Z,5.25
2023-02-07T05:20:52.273Z,4.10
2023-02-07T05:23:19.099Z,4.35
2023-02-07T05:25:47.980Z,4.50
2023-02-07T05:28:14.893Z,4.20
2023-02-07T05:30:41.762Z,4.63
2023-02-07T05:33:08.534Z,3.80
2023-02-07T05:35:40.435Z,4.57
2023-02-07T05:38:09.218Z,4.50
2023-02-07T05:40:36.674Z,7.30
2023-02-07T05:43:03.611Z,3.28
2023-02-07T05:45:30.517Z,3.80
2023-02-07T05:47:57.309Z,3.75
2023-02-07T05:50:24.089Z,3.40
2023-02-07T05:52:50.956Z,3.80
2023-02-07T05:55:17.948Z,3.85
2023-02-07T05:57:45.087Z,3.63
2023-02-07T06:00:13.652Z,4.07
2023-02-07T06:02:40.827Z,3.53
2023-02-07T06:05:08.660Z,3.10
2023-02-07T06:07:35.459Z,3.70
2023-02-07T06:10:03.016Z,4.03
2023-02-07T06:12:29.815Z,3.78
2023-02-07T06:14:56.550Z,3.75
2023-02-07T06:17:23.335Z,4.05
2023-02-07T06:19:52.147Z,4.28
2023-02-07T06:22:20.289Z,4.60
2023-02-07T06:24:47.108Z,4.38
2023-02-07T06:27:13.880Z,3.72
2023-02-07T06:29:40.689Z,3.40
2023-02-07T06:32:07.429Z,3.30
2023-02-07T06:34:34.201Z,3.75
2023-02-07T06:37:00.976Z,3.70
2023-02-07T06:39:27.693Z,5.20
2023-02-07T06:41:54.465Z,4.28
2023-02-07T06:44:21.184Z,3.85
2023-02-07T06:46:47.916Z,4.50
2023-02-07T06:49:14.744Z,4.25
2023-02-07T06:51:41.484Z,3.85
2023-02-07T06:54:09.943Z,4.70
2023-02-07T06:56:37.642Z,3.65
2023-02-07T06:59:04.515Z,5.07
2023-02-07T07:01:31.470Z,5.88
2023-02-07T07:03:58.304Z,4.97
2023-02-07T07:06:25.118Z,4.30
2023-02-07T07:08:51.931Z,5.32
2023-02-07T07:11:19.050Z,4.80
2023-02-07T07:13:46.014Z,4.55
2023-02-07T07:16:12.762Z,4.85
2023-02-07T07:18:39.597Z,4.78
2023-02-07T07:21:07.671Z,4.60
2023-02-07T07:23:34.455Z,3.95
2023-02-07T07:26:01.208Z,4.82
2023-02-07T07:28:27.963Z,4.20
2023-02-07T07:30:54.786Z,5.22
2023-02-07T07:33:21.656Z,5.88
2023-02-07T07:35:48.435Z,3.85
2023-02-07T07:38:15.225Z,4.20
2023-02-07T07:40:41.911Z,4.43
2023-02-07T07:43:08.652Z,5.32
2023-02-07T07:45:35.506Z,5.88
2023-02-07T07:48:02.331Z,4.97
2023-02-07T07:50:29.155Z,5.05
2023-02-07T07:52:56.093Z,6.45
2023-02-07T07:55:23.016Z,4.10
2023-02-07T07:57:49.919Z,4.35
2023-02-07T08:00:16.910Z,6.07
2023-02-07T08:02:43.830Z,4.65
2023-02-07T08:05:13.592Z,5.57
2023-02-07T08:07:40.874Z,4.05
2023-02-07T08:10:08.072Z,4.03
2023-02-07T08:12:34.836Z,4.93
2023-02-07T08:15:01.580Z,4.95
2023-02-07T08:17:28.323Z,4.55
2023-02-07T08:19:55.116Z,6.28
2023-02-07T08:22:21.911Z,5.95
2023-02-07T08:24:48.710Z,4.88
2023-02-07T08:27:15.464Z,4.88
2023-02-07T08:29:42.283Z,4.75
2023-02-07T08:32:09.159Z,4.15
2023-02-07T08:34:37.698Z,4.78
2023-02-07T08:37:06.018Z,4.70
2023-02-07T08:39:32.819Z,4.82
2023-02-07T08:41:59.687Z,4.82
2023-02-07T08:44:26.480Z,5.60
2023-02-07T08:46:53.268Z,5.60
2023-02-07T08:49:20.038Z,6.50
2023-02-07T08:51:55.047Z,6.24
2023-02-07T08:54:22.177Z,5.07
2023-02-07T08:56:48.994Z,5.35
2023-02-07T08:59:15.898Z,6.07
2023-02-07T09:01:42.672Z,5.70
2023-02-07T09:04:11.542Z,4.97
2023-02-07T09:06:38.901Z,5.55
2023-02-07T09:09:06.260Z,9.07
2023-02-07T09:11:33.390Z,4.80
2023-02-07T09:14:00.218Z,5.15
2023-02-07T09:16:27.093Z,5.10
2023-02-07T09:18:53.893Z,6.32
2023-02-07T09:21:20.669Z,5.32
2023-02-07T09:23:47.454Z,4.70
2023-02-07T09:26:19.362Z,4.95
2023-02-07T09:28:46.085Z,5.10
2023-02-07T09:31:13.652Z,5.40
2023-02-07T09:33:40.710Z,5.38
2023-02-07T09:36:17.770Z,6.55
2023-02-07T09:38:45.358Z,6.30
2023-02-07T09:41:35.504Z,6.95
2023-02-07T09:44:27.691Z,5.07
2023-02-07T09:47:00.366Z,6.68
2023-02-07T09:49:39.314Z,6.38
2023-02-07T09:52:09.374Z,4.60
2023-02-07T09:54:42.016Z,4.03
2023-02-07T09:57:16.287Z,4.25
2023-02-07T10:00:03.672Z,4.32
2023-02-07T10:02:56.933Z,3.75
2023-02-07T10:05:31.453Z,4.97
2023-02-07T10:07:58.146Z,3.80
2023-02-07T10:10:32.314Z,3.70
2023-02-07T10:13:03.344Z,4.03
2023-02-07T10:16:07.781Z,3.75
2023-02-07T10:19:04.354Z,2.75
2023-02-07T10:21:50.301Z,3.45
2023-02-07T10:24:34.061Z,2.92
2023-02-07T10:27:09.551Z,2.80
2023-02-07T10:29:54.921Z,3.00
2023-02-07T10:32:24.262Z,3.00
2023-02-07T10:34:53.922Z,3.35
2023-02-07T10:37:22.983Z,3.20
2023-02-07T10:40:03.836Z,3.40
2023-02-07T10:42:31.915Z,2.92
2023-02-07T10:44:58.881Z,4.65
2023-02-07T10:47:26.412Z,3.55
2023-02-07T10:49:54.453Z,3.25
2023-02-07T10:52:23.888Z,3.20
2023-02-07T10:54:55.474Z,3.88
2023-02-07T10:57:22.410Z,2.78
2023-02-07T10:59:50.545Z,4.05
2023-02-07T11:02:32.408Z,2.78
2023-02-07T11:05:21.975Z,3.25
2023-02-07T11:08:22.813Z,2.97
2023-02-07T11:10:50.714Z,3.00
2023-02-07T11:13:27.899Z,2.83
2023-02-07T11:16:01.749Z,2.55
2023-02-07T11:18:33.728Z,5.57
2023-02-07T11:21:00.499Z,2.40
2023-02-07T11:23:27.224Z,2.33
2023-02-07T11:25:55.068Z,2.58
2023-02-07T11:28:24.059Z,2.33
2023-02-07T11:30:56.562Z,2.00
2023-02-07T11:33:26.160Z,2.42
2023-02-07T11:36:15.363Z,2.80
2023-02-07T11:38:47.022Z,2.83
2023-02-07T11:41:22.022Z,3.22
2023-02-07T11:43:53.482Z,2.03
2023-02-07T11:46:20.300Z,2.45
2023-02-07T11:48:48.155Z,2.38
2023-02-07T11:51:16.779Z,2.42
2023-02-07T11:53:49.433Z,2.20
2023-02-07T11:56:38.865Z,2.65
2023-02-07T11:59:15.621Z,2.42
2023-02-07T12:01:44.749Z,2.38
2023-02-07T12:04:15.517Z,3.25
2023-02-07T12:06:59.091Z,2.20
2023-02-07T12:09:28.621Z,2.25
2023-02-07T12:11:55.713Z,2.78
2023-02-07T12:14:55.010Z,2.22
2023-02-07T12:17:28.000Z,2.72
2023-02-07T12:20:12.074Z,2.35
2023-02-07T12:22:53.191Z,2.20
2023-02-07T12:25:33.035Z,1.88
2023-02-07T12:28:01.160Z,1.88
2023-02-07T12:30:39.597Z,2.00
2023-02-07T12:33:42.803Z,1.92
2023-02-07T12:36:21.363Z,2.00
2023-02-07T12:38:57.949Z,1.80
2023-02-07T12:41:57.984Z,2.00
2023-02-07T12:44:39.176Z,2.20
2023-02-07T12:47:24.109Z,1.95
2023-02-07T12:49:59.886Z,2.15
2023-02-07T12:52:38.149Z,2.10
2023-02-07T12:55:23.718Z,2.17
2023-02-07T12:57:59.997Z,2.50
2023-02-07T13:00:43.530Z,1.95
2023-02-07T13:03:13.113Z,1.95
2023-02-07T13:05:55.315Z,2.35
2023-02-07T13:08:39.767Z,1.67
2023-02-07T13:11:27.850Z,1.90
2023-02-07T13:14:12.681Z,2.10
2023-02-07T13:16:49.796Z,2.13
2023-02-07T13:19:22.365Z,2.95
2023-02-07T13:22:05.306Z,2.42
2023-02-07T13:24:32.727Z,2.00
2023-02-07T13:27:03.697Z,1.92
2023-02-07T13:29:31.956Z,2.42
2023-02-07T13:32:01.920Z,2.05
2023-02-07T13:34:32.080Z,1.85
2023-02-07T13:37:02.861Z,2.38
2023-02-07T13:39:53.866Z,1.58
2023-02-07T13:42:40.650Z,2.08
2023-02-07T13:45:25.915Z,2.30
2023-02-07T13:47:58.688Z,1.83
2023-02-07T13:50:46.591Z,2.10
2023-02-07T13:53:50.561Z,1.75
2023-02-07T13:56:35.782Z,1.50
2023-02-07T13:59:20.821Z,1.70
2023-02-07T14:01:52.840Z,1.27
2023-02-07T14:04:19.802Z,1.67
2023-02-07T14:07:03.728Z,1.60
2023-02-07T14:09:42.946Z,1.70
2023-02-07T14:12:26.425Z,1.90
2023-02-07T14:15:02.107Z,1.65
2023-02-07T14:17:29.145Z,1.30
2023-02-07T14:19:57.344Z,1.52
2023-02-07T14:22:31.733Z,1.55
2023-02-07T14:24:58.427Z,1.48
2023-02-07T14:27:30.422Z,1.83
2023-02-07T14:30:00.256Z,1.70
2023-02-07T14:32:28.492Z,1.60
2023-02-07T14:34:59.378Z,1.45
2023-02-07T14:37:46.421Z,1.50
2023-02-07T14:40:20.691Z,1.60
2023-02-07T14:42:58.558Z,1.60
2023-02-07T14:45:25.352Z,1.70
2023-02-07T14:47:52.097Z,1.73
2023-02-07T14:50:23.245Z,1.30
2023-02-07T14:52:50.035Z,1.10
2023-02-07T14:55:24.179Z,1.70
2023-02-07T14:58:04.021Z,1.40
2023-02-07T15:00:35.370Z,1.10
2023-02-07T15:03:05.344Z,1.38
2023-02-07T15:05:37.035Z,1.33
2023-02-07T15:08:03.778Z,1.20
2023-02-07T15:10:31.445Z,1.30
2023-02-07T15:12:58.243Z,1.48
2023-02-07T15:15:27.117Z,2.55
2023-02-07T15:17:55.425Z,1.50
2023-02-07T15:20:33.296Z,1.60
2023-02-07T15:23:01.262Z,1.20
2023-02-07T15:25:28.106Z,1.52
2023-02-07T15:28:05.628Z,1.10
2023-02-07T15:30:33.618Z,1.42
2023-02-07T15:33:00.379Z,1.30
2023-02-07T15:35:36.924Z,1.20
2023-02-07T15:38:15.515Z,1.50
2023-02-07T15:40:42.613Z,1.25
2023-02-07T15:43:27.424Z,1.38
2023-02-07T15:46:05.599Z,1.40
2023-02-07T15:48:33.149Z,1.45
2023-02-07T15:51:01.351Z,1.45
2023-02-07T15:53:28.938Z,1.58
2023-02-07T15:55:55.689Z,1.25
2023-02-07T15:58:31.767Z,1.73
2023-02-07T16:01:03.980Z,1.17
2023-02-07T16:03:35.551Z,1.20
2023-02-07T16:06:24.360Z,1.77
2023-02-07T16:08:52.692Z,1.27
2023-02-07T16:11:31.367Z,1.63
2023-02-07T16:14:25.444Z,1.50
2023-02-07T16:16:53.704Z,1.48
2023-02-07T16:19:30.353Z,3.00
2023-02-07T16:22:07.901Z,4.25
2023-02-07T16:24:36.123Z,2.78
2023-02-07T16:27:02.977Z,3.60
2023-02-07T16:29:29.728Z,1.90
2023-02-07T16:31:56.566Z,1.70
2023-02-07T16:34:23.554Z,2.70
2023-02-07T16:36:52.522Z,2.00
2023-02-07T16:39:19.452Z,2.00
2023-02-07T16:41:50.397Z,1.90
2023-02-07T16:44:35.848Z,2.55
2023-02-07T16:47:02.632Z,1.90
2023-02-07T16:49:30.448Z,2.10
2023-02-07T16:51:57.259Z,2.30
2023-02-07T16:54:24.128Z,2.20
2023-02-07T16:56:54.982Z,2.10
2023-02-07T16:59:22.293Z,2.50
2023-02-07T17:01:50.634Z,5.00
2023-02-07T17:04:17.461Z,2.30
2023-02-07T17:06:44.930Z,3.03
2023-02-07T17:09:18.626Z,3.45
2023-02-07T17:11:45.635Z,3.15
2023-02-07T17:14:12.392Z,2.67
2023-02-07T17:16:39.214Z,2.53
2023-02-07T17:19:11.434Z,3.00
2023-02-07T17:21:38.211Z,2.28
2023-02-07T17:24:05.211Z,2.30
2023-02-07T17:26:32.075Z,2.15
2023-02-07T17:28:59.001Z,2.00
2023-02-07T17:31:25.867Z,2.60
2023-02-07T17:33:52.649Z,3.92
2023-02-07T17:36:19.459Z,3.97
2023-02-07T17:38:46.294Z,3.00
2023-02-07T17:41:13.510Z,3.35
2023-02-07T17:43:41.307Z,3.90
2023-02-07T17:46:17.705Z,3.97
2023-02-07T17:48:47.425Z,3.70
2023-02-07T17:51:18.571Z,3.55
2023-02-07T17:53:45.449Z,2.72
2023-02-07T17:56:31.867Z,3.20
2023-02-07T17:59:03.882Z,4.00
2023-02-07T18:01:31.538Z,3.90
2023-02-07T18:03:58.558Z,4.35
2023-02-07T18:06:26.950Z,4.38
2023-02-07T18:08:56.384Z,6.70
2023-02-07T18:11:24.246Z,5.82
2023-02-07T18:13:51.005Z,4.93
2023-02-07T18:16:22.606Z,5.20
2023-02-07T18:18:50.401Z,5.57
2023-02-07T18:21:17.269Z,5.07
2023-02-07T18:23:44.086Z,4.47
2023-02-07T18:26:12.047Z,5.68
2023-02-07T18:28:38.793Z,4.22
2023-02-07T18:31:20.301Z,3.70
2023-02-07T18:33:47.756Z,3.60
2023-02-07T18:36:14.620Z,3.22
2023-02-07T18:38:41.527Z,2.88
2023-02-07T18:41:10.051Z,3.47
2023-02-07T18:43:38.037Z,2.47
2023-02-07T18:46:09.322Z,2.70
2023-02-07T18:48:36.203Z,2.97
2023-02-07T18:51:12.821Z,2.90
2023-02-07T18:53:39.618Z,2.45
2023-02-07T18:56:17.436Z,4.25
2023-02-07T18:58:46.671Z,3.28
2023-02-07T19:01:17.471Z,2.60
2023-02-07T19:03:44.909Z,3.20
2023-02-07T19:06:11.708Z,3.63
2023-02-07T19:08:39.367Z,4.05
2023-02-07T19:11:06.370Z,4.13
2023-02-07T19:13:33.478Z,3.40
2023-02-07T19:16:08.244Z,3.58
2023-02-07T19:18:35.067Z,4.15
2023-02-07T19:21:05.702Z,4.50
2023-02-07T19:23:32.695Z,3.38
2023-02-07T19:25:59.670Z,4.10
2023-02-07T19:28:26.521Z,3.63
2023-02-07T19:30:53.419Z,3.80
2023-02-07T19:33:20.290Z,2.70
2023-02-07T19:35:47.447Z,3.20
2023-02-07T19:38:14.251Z,2.65
2023-02-07T19:40:41.526Z,4.53
2023-02-07T19:43:08.492Z,2.67
2023-02-07T19:45:35.245Z,8.73
2023-02-07T19:48:01.963Z,6.38
2023-02-07T19:50:28.854Z,2.50
2023-02-07T19:52:55.574Z,5.75
2023-02-07T19:55:22.247Z,5.95
2023-02-07T19:57:48.957Z,3.20
2023-02-07T20:00:15.914Z,3.45
2023-02-07T20:02:42.636Z,2.85
2023-02-07T20:05:09.366Z,3.65
2023-02-07T20:07:36.162Z,3.10
2023-02-07T20:10:03.092Z,3.22
2023-02-07T20:12:29.865Z,3.75
2023-02-07T20:14:56.641Z,3.72
2023-02-07T20:17:23.309Z,3.30
2023-02-07T20:19:50.033Z,3.05
2023-02-07T20:22:16.845Z,3.42
2023-02-07T20:24:43.697Z,3.65
2023-02-07T20:27:10.375Z,3.75
2023-02-07T20:29:37.113Z,4.60
2023-02-07T20:32:03.811Z,7.82
2023-02-07T20:34:30.491Z,5.43
2023-02-07T20:36:57.351Z,4.15
2023-02-07T20:39:24.978Z,3.42
2023-02-07T20:41:51.765Z,2.83
2023-02-07T20:44:20.825Z,4.00
2023-02-07T20:46:49.210Z,4.05
2023-02-07T20:49:19.608Z,5.30
2023-02-07T20:51:48.792Z,6.88
2023-02-07T20:54:16.240Z,7.65
2023-02-07T20:56:43.179Z,11.07
2023-02-07T20:59:13.213Z,5.95
2023-02-07T21:01:40.044Z,6.70
2023-02-07T21:04:06.771Z,6.47
2023-02-07T21:06:34.140Z,5.20
2023-02-07T21:09:02.179Z,4.00
2023-02-07T21:11:36.904Z,5.30
2023-02-07T21:14:04.814Z,4.05
2023-02-07T21:16:31.606Z,4.15
2023-02-07T21:18:58.618Z,4.40
2023-02-07T21:21:25.443Z,4.50
2023-02-07T21:23:52.273Z,3.30
2023-02-07T21:26:19.215Z,3.85
2023-02-07T21:28:46.224Z,4.43
2023-02-07T21:31:17.648Z,4.03
2023-02-07T21:33:45.206Z,7.05
2023-02-07T21:36:14.044Z,3.83
2023-02-07T21:38:41.888Z,4.80
2023-02-07T21:41:10.912Z,4.63
2023-02-07T21:43:38.020Z,4.82
2023-02-07T21:46:12.542Z,7.00
2023-02-07T21:48:39.587Z,3.80
2023-02-07T21:51:08.014Z,4.53
2023-02-07T21:53:34.847Z,4.15
2023-02-07T21:56:02.545Z,4.45
2023-02-07T21:58:29.354Z,4.22
2023-02-07T22:00:56.192Z,5.65
2023-02-07T22:03:23.068Z,4.75
2023-02-07T22:05:52.889Z,7.55
2023-02-07T22:08:19.866Z,3.83
2023-02-07T22:10:46.679Z,4.90
2023-02-07T22:13:13.499Z,4.45
2023-02-07T22:15:40.253Z,4.97
2023-02-07T22:18:07.157Z,4.53
2023-02-07T22:20:33.888Z,4.30
2023-02-07T22:23:00.647Z,3.90
2023-02-07T22:25:27.371Z,3.97
2023-02-07T22:27:54.104Z,4.85
2023-02-07T22:30:20.870Z,3.50
2023-02-07T22:32:47.643Z,4.57
2023-02-07T22:35:14.474Z,5.35
2023-02-07T22:37:42.460Z,3.88
2023-02-07T22:40:09.893Z,4.63
2023-02-07T22:42:36.685Z,4.13
2023-02-07T22:45:03.525Z,4.97
2023-02-07T22:47:30.270Z,4.35
2023-02-07T22:49:57.036Z,4.07
2023-02-07T22:52:23.728Z,3.80
2023-02-07T22:54:50.633Z,4.15
2023-02-07T22:57:17.477Z,4.35
2023-02-07T22:59:44.224Z,5.40
2023-02-07T23:02:11.941Z,4.53
2023-02-07T23:04:39.304Z,3.97
2023-02-07T23:07:06.062Z,6.10
2023-02-07T23:09:32.937Z,4.18
2023-02-07T23:11:59.662Z,4.63
2023-02-07T23:14:26.488Z,5.05
2023-02-07T23:16:53.230Z,5.30
2023-02-07T23:19:19.982Z,5.07
2023-02-07T23:21:46.809Z,4.57
2023-02-07T23:24:13.550Z,4.82
2023-02-07T23:26:40.333Z,4.47
2023-02-07T23:29:07.110Z,4.22
2023-02-07T23:31:34.017Z,4.65
2023-02-07T23:34:00.913Z,4.80
2023-02-07T23:36:27.758Z,3.90
2023-02-07T23:38:54.552Z,4.10
2023-02-07T23:41:21.320Z,4.13
2023-02-07T23:43:48.087Z,4.60
2023-02-07T23:46:15.303Z,4.93
2023-02-07T23:48:42.146Z,6.30
2023-02-07T23:51:10.010Z,4.78
2023-02-07T23:53:36.776Z,5.20
2023-02-07T23:56:03.922Z,4.40
2023-02-07T23:58:30.894Z,4.53
